createdAt,value
2022-12-15T00:01:48.224Z,98757.78
2022-12-15T00:04:32.914Z,98764.63
2022-12-15T00:07:17.613Z,98769.97
2022-12-15T00:10:02.297Z,98775.78
2022-12-15T00:12:46.950Z,98773.84
2022-12-15T00:15:31.608Z,98776.50
2022-12-15T00:18:16.345Z,98775.66
2022-12-15T00:21:01.143Z,98774.94
2022-12-15T00:23:46.067Z,98773.06
2022-12-15T00:26:30.880Z,98766.75
2022-12-15T00:29:15.750Z,98768.75
2022-12-15T00:32:00.429Z,98766.00
2022-12-15T00:34:45.638Z,98771.44
2022-12-15T00:37:30.495Z,98768.19
2022-12-15T00:39:59.623Z,98774.44
2022-12-15T00:42:28.612Z,98773.63
2022-12-15T00:44:56.097Z,98779.63
2022-12-15T00:47:22.750Z,98777.13
2022-12-15T00:50:07.535Z,98782.38
2022-12-15T00:52:52.694Z,98779.63
2022-12-15T00:55:37.284Z,98786.38
2022-12-15T00:58:22.091Z,98787.53
2022-12-15T01:01:07.440Z,98783.19
2022-12-15T01:03:53.020Z,98791.38
2022-12-15T01:06:38.919Z,98797.53
2022-12-15T01:09:25.824Z,98802.28
2022-12-15T01:12:11.699Z,98806.72
2022-12-15T01:14:57.114Z,98804.13
2022-12-15T01:17:42.519Z,98815.28
2022-12-15T01:20:15.560Z,98813.44
2022-12-15T01:22:42.117Z,98821.13
2022-12-15T01:25:10.266Z,98829.53
2022-12-15T01:27:36.708Z,98822.78
2022-12-15T01:30:05.001Z,98829.78
2022-12-15T01:32:31.809Z,98831.94
2022-12-15T01:34:58.425Z,98835.47
2022-12-15T01:37:24.861Z,98837.13
2022-12-15T01:40:23.207Z,98844.09
2022-12-15T01:42:49.600Z,98846.28
2022-12-15T01:45:24.904Z,98845.28
2022-12-15T01:47:53.516Z,98851.69
2022-12-15T01:50:19.985Z,98846.78
2022-12-15T01:52:49.670Z,98856.13
2022-12-15T01:55:19.295Z,98862.44
2022-12-15T01:57:48.156Z,98867.00
2022-12-15T02:00:15.413Z,98866.84
2022-12-15T02:02:41.923Z,98870.25
2022-12-15T02:05:09.515Z,98871.63
2022-12-15T02:07:35.865Z,98872.59
2022-12-15T02:10:07.197Z,98877.59
2022-12-15T02:12:41.264Z,98880.78
2022-12-15T02:15:37.900Z,98881.44
2022-12-15T02:18:21.243Z,98876.94
2022-12-15T02:20:47.544Z,98878.34
2022-12-15T02:23:29.328Z,98879.78
2022-12-15T02:26:10.441Z,98882.00
2022-12-15T02:29:07.821Z,98884.97
2022-12-15T02:31:54.510Z,98886.25
2022-12-15T02:34:35.074Z,98890.09
2022-12-15T02:37:05.725Z,98889.13
2022-12-15T02:39:32.082Z,98890.28
2022-12-15T02:41:58.682Z,98887.94
2022-12-15T02:44:36.906Z,98890.63
2022-12-15T02:47:34.116Z,98891.28
2022-12-15T02:50:03.395Z,98889.03
2022-12-15T02:52:55.390Z,98897.34
2022-12-15T02:55:39.437Z,98900.25
2022-12-15T02:58:14.878Z,98895.44
2022-12-15T03:00:47.187Z,98897.44
2022-12-15T03:03:20.203Z,98920.09
2022-12-15T03:05:53.144Z,98912.56
2022-12-15T03:08:21.007Z,98914.25
2022-12-15T03:10:49.836Z,98919.03
2022-12-15T03:13:16.254Z,98919.03
2022-12-15T03:15:42.902Z,98922.03
2022-12-15T03:18:09.605Z,98930.31
2022-12-15T03:20:36.120Z,98933.31
2022-12-15T03:23:02.640Z,98940.31
2022-12-15T03:25:29.260Z,98946.06
2022-12-15T03:27:55.936Z,98943.00
2022-12-15T03:30:22.446Z,98946.06
2022-12-15T03:32:48.923Z,98949.38
2022-12-15T03:35:15.327Z,98955.63
2022-12-15T03:37:42.898Z,98951.41
2022-12-15T03:40:10.377Z,98955.75
2022-12-15T03:42:48.969Z,98959.72
2022-12-15T03:45:20.344Z,98966.47
2022-12-15T03:47:47.938Z,98962.31
2022-12-15T03:50:17.038Z,98972.78
2022-12-15T03:52:43.468Z,98975.31
2022-12-15T03:55:11.125Z,98975.38
2022-12-15T03:57:37.652Z,98972.88
2022-12-15T04:00:06.071Z,98973.41
2022-12-15T04:02:32.794Z,98976.81
2022-12-15T04:04:59.247Z,98976.81
2022-12-15T04:07:25.603Z,98977.06
2022-12-15T04:09:51.945Z,98985.69
2022-12-15T04:12:18.356Z,98984.22
2022-12-15T04:14:44.700Z,98996.19
2022-12-15T04:17:11.964Z,99004.03
2022-12-15T04:19:56.983Z,99015.97
2022-12-15T04:22:23.732Z,99013.84
2022-12-15T04:25:08.529Z,99008.53
2022-12-15T04:27:57.070Z,99017.72
2022-12-15T04:30:44.741Z,99021.69
2022-12-15T04:33:30.961Z,99021.69
2022-12-15T04:36:16.320Z,99031.97
2022-12-15T04:39:01.187Z,99023.38
2022-12-15T04:41:46.048Z,99025.97
2022-12-15T04:44:31.241Z,99039.03
2022-12-15T04:47:16.029Z,99048.44
2022-12-15T04:50:00.755Z,99052.84
2022-12-15T04:52:46.689Z,99055.69
2022-12-15T04:55:31.368Z,99051.50
2022-12-15T04:58:16.171Z,99056.03
2022-12-15T05:01:00.843Z,99060.00
2022-12-15T05:03:45.575Z,99067.91
2022-12-15T05:06:30.275Z,99067.13
2022-12-15T05:09:15.074Z,99065.47
2022-12-15T05:11:59.791Z,99059.41
2022-12-15T05:14:44.551Z,99062.75
2022-12-15T05:17:33.652Z,99073.22
2022-12-15T05:20:20.752Z,99086.34
2022-12-15T05:23:12.043Z,99087.94
2022-12-15T05:25:57.316Z,99087.25
2022-12-15T05:28:42.085Z,99089.91
2022-12-15T05:31:27.345Z,99089.00
2022-12-15T05:34:04.487Z,99091.88
2022-12-15T05:36:31.738Z,99097.78
2022-12-15T05:38:58.095Z,99102.50
2022-12-15T05:41:24.504Z,99103.25
2022-12-15T05:43:50.864Z,99104.31
2022-12-15T05:46:17.284Z,99107.66
2022-12-15T05:48:43.740Z,99105.34
2022-12-15T05:51:11.545Z,99111.72
2022-12-15T05:53:40.188Z,99112.50
2022-12-15T05:56:12.370Z,99122.03
2022-12-15T05:58:45.106Z,99123.09
2022-12-15T06:01:15.800Z,99135.06
2022-12-15T06:03:43.095Z,99129.91
2022-12-15T06:06:11.949Z,99124.81
2022-12-15T06:08:41.029Z,99132.50
2022-12-15T06:11:07.833Z,99135.22
2022-12-15T06:13:34.973Z,99143.00
2022-12-15T06:16:04.161Z,99143.09
2022-12-15T06:18:35.869Z,99150.91
2022-12-15T06:21:05.579Z,99142.31
2022-12-15T06:23:34.420Z,99152.78
2022-12-15T06:26:10.873Z,99155.31
2022-12-15T06:28:37.589Z,99157.06
2022-12-15T06:31:05.734Z,99155.50
2022-12-15T06:33:32.730Z,99161.44
2022-12-15T06:36:08.431Z,99165.78
2022-12-15T06:38:35.853Z,99174.41
2022-12-15T06:41:04.661Z,99177.88
2022-12-15T06:43:33.517Z,99180.00
2022-12-15T06:46:01.886Z,99180.66
2022-12-15T06:48:28.520Z,99185.97
2022-12-15T06:50:55.325Z,99192.94
2022-12-15T06:53:23.990Z,99195.75
2022-12-15T06:55:50.739Z,99202.84
2022-12-15T06:58:18.134Z,99210.16
2022-12-15T07:00:45.883Z,99213.56
2022-12-15T07:03:17.487Z,99215.25
2022-12-15T07:05:45.038Z,99201.56
2022-12-15T07:08:13.055Z,99211.13
2022-12-15T07:10:40.672Z,99217.03
2022-12-15T07:13:10.127Z,99219.63
2022-12-15T07:15:37.004Z,99222.97
2022-12-15T07:18:03.786Z,99223.75
2022-12-15T07:20:30.593Z,99226.47
2022-12-15T07:22:56.986Z,99232.59
2022-12-15T07:25:23.789Z,99234.34
2022-12-15T07:27:50.156Z,99241.44
2022-12-15T07:30:17.651Z,99239.03
2022-12-15T07:32:50.189Z,99249.16
2022-12-15T07:35:17.864Z,99259.47
2022-12-15T07:37:44.304Z,99246.47
2022-12-15T07:40:11.060Z,99248.13
2022-12-15T07:42:37.543Z,99241.31
2022-12-15T07:45:05.417Z,99252.53
2022-12-15T07:47:32.478Z,99255.16
2022-12-15T07:49:59.229Z,99265.44
2022-12-15T07:52:26.172Z,99272.25
2022-12-15T07:54:52.544Z,99267.09
2022-12-15T07:57:19.698Z,99268.34
2022-12-15T07:59:46.296Z,99274.94
2022-12-15T08:02:14.431Z,99276.03
2022-12-15T08:04:41.275Z,99285.25
2022-12-15T08:07:09.003Z,99275.34
2022-12-15T08:09:35.545Z,99269.78
2022-12-15T08:12:02.162Z,99262.06
2022-12-15T08:14:32.225Z,99259.47
2022-12-15T08:16:58.646Z,99268.13
2022-12-15T08:19:25.023Z,99273.16
2022-12-15T08:21:51.432Z,99268.97
2022-12-15T08:24:19.267Z,99285.53
2022-12-15T08:26:50.070Z,99285.53
2022-12-15T08:29:49.466Z,99286.38
2022-12-15T08:32:03.971Z,99288.69
2022-12-15T08:34:30.466Z,99295.66
2022-12-15T08:36:56.834Z,99291.53
2022-12-15T08:39:23.216Z,99299.00
2022-12-15T08:41:50.248Z,99305.06
2022-12-15T08:44:17.273Z,99307.66
2022-12-15T08:46:43.690Z,99304.25
2022-12-15T08:49:10.512Z,99304.94
2022-12-15T08:51:36.888Z,99310.63
2022-12-15T08:54:03.438Z,99308.72
2022-12-15T08:56:30.384Z,99304.06
2022-12-15T08:59:02.006Z,99307.47
2022-12-15T09:01:31.492Z,99306.41
2022-12-15T09:03:58.607Z,99301.34
2022-12-15T09:06:28.113Z,99299.53
2022-12-15T09:08:56.505Z,99311.81
2022-12-15T09:11:27.146Z,99301.69
2022-12-15T09:13:53.945Z,99308.63
2022-12-15T09:16:21.348Z,99311.53
2022-12-15T09:18:50.671Z,99306.50
2022-12-15T09:21:18.216Z,99313.13
2022-12-15T09:23:47.951Z,99319.34
2022-12-15T09:26:15.639Z,99316.69
2022-12-15T09:28:45.457Z,99309.84
2022-12-15T09:31:21.919Z,99315.84
2022-12-15T09:33:50.467Z,99311.66
2022-12-15T09:36:16.956Z,99319.13
2022-12-15T09:38:43.810Z,99317.47
2022-12-15T09:41:12.876Z,99322.56
2022-12-15T09:43:48.997Z,99314.03
2022-12-15T09:46:24.557Z,99313.53
2022-12-15T09:48:53.705Z,99322.97
2022-12-15T09:51:26.291Z,99320.53
2022-12-15T09:53:55.470Z,99322.69
2022-12-15T09:56:31.022Z,99317.53
2022-12-15T09:59:05.380Z,99319.19
2022-12-15T10:01:45.014Z,99325.34
2022-12-15T10:04:41.660Z,99326.06
2022-12-15T10:07:27.026Z,99330.31
2022-12-15T10:09:53.419Z,99328.41
2022-12-15T10:12:27.208Z,99332.34
2022-12-15T10:15:05.850Z,99335.34
2022-12-15T10:17:40.968Z,99339.53
2022-12-15T10:20:14.365Z,99346.22
2022-12-15T10:22:40.783Z,99347.72
2022-12-15T10:25:22.080Z,99346.19
2022-12-15T10:28:23.259Z,99346.97
2022-12-15T10:31:03.397Z,99354.59
2022-12-15T10:33:39.730Z,99352.63
2022-12-15T10:36:11.562Z,99359.16
2022-12-15T10:38:42.381Z,99348.06
2022-12-15T10:41:12.094Z,99354.97
2022-12-15T10:43:40.922Z,99359.16
2022-12-15T10:46:13.747Z,99358.25
2022-12-15T10:48:42.146Z,99363.72
2022-12-15T10:51:16.673Z,99365.56
2022-12-15T10:53:46.841Z,99361.75
2022-12-15T10:56:28.805Z,99357.41
2022-12-15T10:59:00.383Z,99368.59
2022-12-15T11:01:29.281Z,99363.25
2022-12-15T11:03:56.794Z,99356.25
2022-12-15T11:06:26.676Z,99352.75
2022-12-15T11:09:06.875Z,99356.09
2022-12-15T11:11:54.015Z,99349.72
2022-12-15T11:14:24.232Z,99340.94
2022-12-15T11:16:56.481Z,99344.28
2022-12-15T11:19:40.842Z,99351.66
2022-12-15T11:22:34.057Z,99352.84
2022-12-15T11:25:04.488Z,99355.53
2022-12-15T11:27:38.844Z,99353.00
2022-12-15T11:30:20.052Z,99348.03
2022-12-15T11:32:50.110Z,99350.81
2022-12-15T11:35:23.756Z,99351.22
2022-12-15T11:38:02.799Z,99350.22
2022-12-15T11:40:40.750Z,99349.38
2022-12-15T11:43:34.807Z,99346.78
2022-12-15T11:46:10.782Z,99349.28
2022-12-15T11:49:01.638Z,99349.56
2022-12-15T11:51:44.662Z,99344.56
2022-12-15T11:54:34.679Z,99346.84
2022-12-15T11:57:28.830Z,99348.56
2022-12-15T12:00:04.252Z,99351.25
2022-12-15T12:02:36.821Z,99352.75
2022-12-15T12:05:52.071Z,99336.34
2022-12-15T12:08:40.720Z,99342.22
2022-12-15T12:11:19.998Z,99339.22
2022-12-15T12:14:11.923Z,99349.25
2022-12-15T12:17:02.694Z,99343.56
2022-12-15T12:19:44.057Z,99330.03
2022-12-15T12:22:30.155Z,99328.50
2022-12-15T12:25:15.254Z,99320.00
2022-12-15T12:27:56.650Z,99321.81
2022-12-15T12:30:28.167Z,99315.97
2022-12-15T12:33:25.269Z,99318.88
2022-12-15T12:35:57.349Z,99319.66
2022-12-15T12:38:32.174Z,99310.13
2022-12-15T12:41:06.304Z,99314.22
2022-12-15T12:43:38.217Z,99320.13
2022-12-15T12:46:21.225Z,99323.84
2022-12-15T12:48:59.479Z,99334.19
2022-12-15T12:51:30.525Z,99330.84
2022-12-15T12:53:58.932Z,99323.84
2022-12-15T12:56:43.248Z,99326.50
2022-12-15T12:59:30.733Z,99328.69
2022-12-15T13:02:11.450Z,99328.84
2022-12-15T13:04:39.997Z,99330.69
2022-12-15T13:07:53.308Z,99332.69
2022-12-15T13:10:21.976Z,99324.16
2022-12-15T13:12:58.689Z,99324.00
2022-12-15T13:15:28.808Z,99324.00
2022-12-15T13:18:09.197Z,99322.84
2022-12-15T13:20:37.660Z,99318.13
2022-12-15T13:23:19.325Z,99322.91
2022-12-15T13:25:57.822Z,99326.50
2022-12-15T13:28:40.377Z,99317.78
2022-12-15T13:31:19.950Z,99318.56
2022-12-15T13:33:49.258Z,99314.28
2022-12-15T13:36:37.748Z,99312.78
2022-12-15T13:39:16.289Z,99321.50
2022-12-15T13:44:54.957Z,99334.44
2022-12-15T13:47:29.920Z,99338.94
2022-12-15T13:50:02.233Z,99335.56
2022-12-15T13:53:16.522Z,99329.84
2022-12-15T13:55:35.968Z,99334.75
2022-12-15T13:58:05.194Z,99341.69
2022-12-15T14:00:32.739Z,99337.50
2022-12-15T14:03:11.962Z,99337.34
2022-12-15T14:05:41.172Z,99344.22
2022-12-15T14:08:13.552Z,99351.06
2022-12-15T14:10:49.067Z,99352.72
2022-12-15T14:13:31.403Z,99357.25
2022-12-15T14:16:17.243Z,99358.44
2022-12-15T14:18:44.908Z,99355.00
2022-12-15T14:21:23.547Z,99345.75
2022-12-15T14:24:28.504Z,99343.56
2022-12-15T14:26:36.292Z,99338.53
2022-12-15T14:29:05.666Z,99341.31
2022-12-15T14:31:32.261Z,99336.53
2022-12-15T14:34:17.910Z,99344.41
2022-12-15T14:36:45.924Z,99348.16
2022-12-15T14:39:29.345Z,99341.50
2022-12-15T14:41:57.173Z,99353.75
2022-12-15T14:44:38.181Z,99350.44
2022-12-15T14:47:08.416Z,99345.47
2022-12-15T14:49:45.089Z,99352.41
2022-12-15T14:52:28.619Z,99348.34
2022-12-15T14:54:58.262Z,99351.91
2022-12-15T14:57:42.044Z,99342.38
2022-12-15T15:00:30.479Z,99349.41
2022-12-15T15:03:19.634Z,99346.19
2022-12-15T15:05:50.492Z,99341.34
2022-12-15T15:08:22.083Z,99340.78
2022-12-15T15:10:48.651Z,99345.19
2022-12-15T15:13:23.259Z,99333.84
2022-12-15T15:16:01.276Z,99342.72
2022-12-15T15:18:29.535Z,99343.94
2022-12-15T15:21:07.211Z,99341.69
2022-12-15T15:23:33.772Z,99336.81
2022-12-15T15:26:06.340Z,99340.50
2022-12-15T15:28:44.042Z,99351.91
2022-12-15T15:31:25.411Z,99349.50
2022-12-15T15:33:52.733Z,99345.34
2022-12-15T15:36:19.124Z,99348.97
2022-12-15T15:38:46.696Z,99355.00
2022-12-15T15:41:23.464Z,99348.09
2022-12-15T15:43:49.845Z,99339.63
2022-12-15T15:46:19.855Z,99349.16
2022-12-15T15:48:47.451Z,99344.97
2022-12-15T15:51:14.179Z,99339.72
2022-12-15T15:53:40.864Z,99343.03
2022-12-15T15:56:10.822Z,99338.78
2022-12-15T15:58:37.352Z,99349.03
2022-12-15T16:01:09.582Z,99348.00
2022-12-15T16:03:39.485Z,99349.31
2022-12-15T16:06:09.756Z,99351.28
2022-12-15T16:08:36.835Z,99359.31
2022-12-15T16:11:03.310Z,99364.47
2022-12-15T16:13:29.653Z,99360.19
2022-12-15T16:15:56.185Z,99362.88
2022-12-15T16:18:22.819Z,99373.44
2022-12-15T16:20:51.592Z,99378.63
2022-12-15T16:23:21.375Z,99372.69
2022-12-15T16:25:52.753Z,99371.25
2022-12-15T16:28:22.161Z,99380.00
2022-12-15T16:30:50.328Z,99379.84
2022-12-15T16:33:17.156Z,99378.25
2022-12-15T16:35:45.273Z,99377.56
2022-12-15T16:38:21.740Z,99369.13
2022-12-15T16:40:48.416Z,99371.94
2022-12-15T16:43:17.451Z,99366.78
2022-12-15T16:45:45.917Z,99376.44
2022-12-15T16:48:13.106Z,99384.44
2022-12-15T16:50:42.765Z,99391.34
2022-12-15T16:53:17.978Z,99389.59
2022-12-15T16:55:45.226Z,99396.47
2022-12-15T16:58:15.756Z,99396.47
2022-12-15T17:00:42.568Z,99395.69
2022-12-15T17:03:14.207Z,99397.75
2022-12-15T17:05:43.893Z,99391.03
2022-12-15T17:08:18.096Z,99390.22
2022-12-15T17:10:45.571Z,99387.41
2022-12-15T17:13:43.560Z,99380.00
2022-12-15T17:16:14.289Z,99391.34
2022-12-15T17:18:42.608Z,99389.44
2022-12-15T17:21:15.060Z,99393.88
2022-12-15T17:23:44.736Z,99405.06
2022-12-15T17:26:27.428Z,99404.38
2022-12-15T17:28:56.279Z,99401.16
2022-12-15T17:31:24.339Z,99403.06
2022-12-15T17:33:50.939Z,99406.63
2022-12-15T17:36:23.595Z,99388.84
2022-12-15T17:38:55.290Z,99389.88
2022-12-15T17:41:42.809Z,99392.03
2022-12-15T17:44:38.728Z,99388.97
2022-12-15T17:47:07.601Z,99383.97
2022-12-15T17:49:37.487Z,99388.22
2022-12-15T17:52:20.670Z,99387.22
2022-12-15T17:54:47.142Z,99400.22
2022-12-15T17:57:13.594Z,99398.19
2022-12-15T17:59:39.972Z,99390.28
2022-12-15T18:02:06.490Z,99384.41
2022-12-15T18:04:33.034Z,99375.59
2022-12-15T18:07:02.062Z,99380.09
2022-12-15T18:09:28.903Z,99382.59
2022-12-15T18:11:55.275Z,99372.38
2022-12-15T18:14:22.772Z,99363.28
2022-12-15T18:16:50.124Z,99353.34
2022-12-15T18:19:16.729Z,99360.97
2022-12-15T18:21:43.276Z,99357.97
2022-12-15T18:24:15.355Z,99365.94
2022-12-15T18:26:41.712Z,99373.00
2022-12-15T18:29:17.931Z,99369.66
2022-12-15T18:31:46.968Z,99378.88
2022-12-15T18:34:16.111Z,99382.44
2022-12-15T18:36:42.949Z,99387.47
2022-12-15T18:39:23.152Z,99385.81
2022-12-15T18:41:50.461Z,99383.06
2022-12-15T18:44:24.360Z,99388.41
2022-12-15T18:46:52.025Z,99382.53
2022-12-15T18:49:18.916Z,99385.34
2022-12-15T18:51:47.122Z,99393.09
2022-12-15T18:54:19.347Z,99391.34
2022-12-15T18:56:45.827Z,99375.00
2022-12-15T18:59:15.563Z,99382.13
2022-12-15T19:01:46.429Z,99375.16
2022-12-15T19:04:13.135Z,99380.78
2022-12-15T19:06:40.802Z,99379.09
2022-12-15T19:09:22.048Z,99375.44
2022-12-15T19:12:08.318Z,99377.25
2022-12-15T19:14:40.498Z,99373.16
2022-12-15T19:17:33.990Z,99370.91
2022-12-15T19:20:19.816Z,99375.47
2022-12-15T19:22:47.929Z,99373.75
2022-12-15T19:25:26.415Z,99367.84
2022-12-15T19:27:58.543Z,99367.22
2022-12-15T19:30:27.673Z,99361.28
2022-12-15T19:32:54.268Z,99369.59
2022-12-15T19:35:21.363Z,99366.16
2022-12-15T19:37:49.667Z,99373.91
2022-12-15T19:40:24.983Z,99369.00
2022-12-15T19:42:52.909Z,99375.16
2022-12-15T19:45:32.629Z,99373.31
2022-12-15T19:47:59.873Z,99363.97
2022-12-15T19:50:30.495Z,99367.38
2022-12-15T19:53:01.980Z,99365.78
2022-12-15T19:55:34.182Z,99374.06
2022-12-15T19:58:15.432Z,99375.81
2022-12-15T20:00:41.828Z,99365.31
2022-12-15T20:03:08.306Z,99362.69
2022-12-15T20:05:34.889Z,99356.81
2022-12-15T20:08:01.918Z,99364.66
2022-12-15T20:10:32.372Z,99361.28
2022-12-15T20:13:00.477Z,99363.13
2022-12-15T20:15:27.241Z,99369.03
2022-12-15T20:17:56.480Z,99359.63
2022-12-15T20:20:25.444Z,99363.72
2022-12-15T20:22:54.889Z,99357.50
2022-12-15T20:25:25.940Z,99361.38
2022-12-15T20:27:52.434Z,99358.69
2022-12-15T20:30:25.334Z,99359.22
2022-12-15T20:32:52.127Z,99354.91
2022-12-15T20:35:21.196Z,99341.81
2022-12-15T20:37:48.082Z,99347.81
2022-12-15T20:40:23.542Z,99340.97
2022-12-15T20:42:51.422Z,99332.34
2022-12-15T20:45:21.770Z,99331.84
2022-12-15T20:47:49.810Z,99316.81
2022-12-15T20:50:37.304Z,99317.69
2022-12-15T20:53:05.919Z,99312.03
2022-12-15T20:55:32.484Z,99310.75
2022-12-15T20:57:58.862Z,99305.56
2022-12-15T21:00:25.781Z,99300.63
2022-12-15T21:02:55.154Z,99294.78
2022-12-15T21:05:24.598Z,99296.59
2022-12-15T21:07:51.672Z,99295.00
2022-12-15T21:10:20.270Z,99295.69
2022-12-15T21:12:49.148Z,99298.44
2022-12-15T21:15:23.144Z,99305.28
2022-12-15T21:18:10.993Z,99301.63
2022-12-15T21:20:40.421Z,99299.13
2022-12-15T21:23:17.373Z,99296.44
2022-12-15T21:25:43.922Z,99279.41
2022-12-15T21:28:13.861Z,99279.31
2022-12-15T21:30:40.615Z,99276.81
2022-12-15T21:33:07.051Z,99289.44
2022-12-15T21:35:34.710Z,99286.03
2022-12-15T21:38:02.369Z,99280.03
2022-12-15T21:40:29.371Z,99279.25
2022-12-15T21:42:56.778Z,99282.59
2022-12-15T21:45:25.602Z,99273.91
2022-12-15T21:48:12.723Z,99273.75
2022-12-15T21:50:43.040Z,99285.75
2022-12-15T21:53:15.790Z,99280.59
2022-12-15T21:55:44.396Z,99281.44
2022-12-15T21:58:19.993Z,99279.09
2022-12-15T22:00:47.129Z,99274.75
2022-12-15T22:03:13.848Z,99277.28
2022-12-15T22:05:40.338Z,99280.59
2022-12-15T22:08:16.222Z,99277.94
2022-12-15T22:10:42.968Z,99289.28
2022-12-15T22:13:14.881Z,99295.22
2022-12-15T22:15:41.417Z,99299.47
2022-12-15T22:18:14.436Z,99290.78
2022-12-15T22:20:42.330Z,99303.00
2022-12-15T22:23:08.669Z,99301.13
2022-12-15T22:25:35.029Z,99299.41
2022-12-15T22:28:01.435Z,99290.22
2022-12-15T22:30:27.917Z,99295.38
2022-12-15T22:32:54.260Z,99292.22
2022-12-15T22:35:26.461Z,99300.44
2022-12-15T22:37:56.318Z,99295.44
2022-12-15T22:40:23.908Z,99295.03
2022-12-15T22:42:55.176Z,99300.38
2022-12-15T22:45:23.931Z,99308.19
2022-12-15T22:47:52.331Z,99315.13
2022-12-15T22:50:21.982Z,99314.06
2022-12-15T22:52:48.355Z,99312.44
2022-12-15T22:55:16.853Z,99309.78
2022-12-15T22:58:02.975Z,99310.78
2022-12-15T23:00:29.368Z,99304.00
2022-12-15T23:05:29.682Z,99311.63
2022-12-15T23:07:56.167Z,99313.38
2022-12-15T23:10:41.137Z,99318.66
2022-12-15T23:13:07.481Z,99319.38
2022-12-15T23:15:52.930Z,99326.25
2022-12-15T23:18:21.204Z,99322.59
2022-12-15T23:20:47.613Z,99314.06
2022-12-15T23:23:15.328Z,99317.41
2022-12-15T23:25:41.732Z,99303.53
2022-12-15T23:28:08.084Z,99293.16
2022-12-15T23:30:34.833Z,99287.09
2022-12-15T23:33:01.215Z,99275.06
2022-12-15T23:35:27.574Z,99275.81
2022-12-15T23:37:53.939Z,99277.16
2022-12-15T23:40:22.046Z,99275.31
2022-12-15T23:42:52.206Z,99288.44
2022-12-15T23:45:18.832Z,99278.13
2022-12-15T23:47:45.342Z,99279.00
2022-12-15T23:50:11.876Z,99278.50
2022-12-15T23:52:38.333Z,99287.19
2022-12-15T23:55:05.228Z,99280.34
2022-12-15T23:57:31.587Z,99280.34
2022-12-15T23:59:57.941Z,99277.75
